Time;durP1;ratioP1;P1;durP2;ratioP2;P2;SDS_P1;SDS_P2;PMS_P1;PMS_P2;Temp;Humidity;BMP_temperature;BMP_pressure;BME280_temperature;BME280_humidity;BME280_pressure;Samples;Min_cycle;Max_cycle;Signal;HPM_P1;HPM_P2
2022/06/11 00:00:17;;;;;;;11.25;3.40;;;;;;;;;;5073764;28;20029;-72
2022/06/11 00:02:43;;;;;;;9.23;3.67;;;;;;;;;;5084923;28;20044;-72
2022/06/11 00:05:10;;;;;;;7.82;3.05;;;;;;;;;;5079170;28;20051;-72
2022/06/11 00:07:36;;;;;;;10.85;3.10;;;;;;;;;;5075867;28;20041;-72
2022/06/11 00:10:04;;;;;;;9.00;2.80;;;;;;;;;;5084838;28;20032;-72
2022/06/11 00:12:31;;;;;;;7.30;2.75;;;;;;;;;;5057505;28;20054;-72
2022/06/11 00:14:57;;;;;;;5.70;2.97;;;;;;;;;;5075916;28;20041;-71
2022/06/11 00:17:24;;;;;;;7.78;3.50;;;;;;;;;;5080777;28;20115;-71
2022/06/11 00:19:50;;;;;;;12.60;3.67;;;;;;;;;;5075180;28;20033;-71
2022/06/11 00:22:18;;;;;;;8.05;3.30;;;;;;;;;;5086505;28;20048;-71
2022/06/11 00:24:47;;;;;;;8.55;3.22;;;;;;;;;;5075270;28;20036;-71
2022/06/11 00:27:15;;;;;;;9.00;3.22;;;;;;;;;;5079846;28;20031;-71
2022/06/11 00:29:42;;;;;;;9.40;3.38;;;;;;;;;;5083391;28;20050;-71
2022/06/11 00:32:10;;;;;;;10.70;3.63;;;;;;;;;;5073109;28;20492;-71
2022/06/11 00:34:37;;;;;;;11.43;3.83;;;;;;;;;;5085021;28;20039;-71
2022/06/11 00:37:04;;;;;;;12.38;3.83;;;;;;;;;;5077956;28;20032;-71
2022/06/11 00:39:33;;;;;;;10.55;3.40;;;;;;;;;;5077707;28;20397;-71
2022/06/11 00:42:04;;;;;;;12.88;3.55;;;;;;;;;;5085727;28;20039;-71
2022/06/11 00:44:33;;;;;;;12.45;4.20;;;;;;;;;;5056804;28;20301;-71
2022/06/11 00:47:06;;;;;;;9.18;3.65;;;;;;;;;;5081785;28;20448;-71
2022/06/11 00:49:52;;;;;;;7.07;3.72;;;;;;;;;;5081873;28;20404;-71
2022/06/11 00:52:36;;;;;;;9.02;3.75;;;;;;;;;;5072908;28;20401;-71
2022/06/11 00:55:10;;;;;;;8.57;3.70;;;;;;;;;;5081341;28;20036;-71
2022/06/11 00:57:48;;;;;;;10.32;4.05;;;;;;;;;;5082337;28;20479;-71
2022/06/11 01:00:19;;;;;;;11.05;4.00;;;;;;;;;;5072717;28;20407;-71
2022/06/11 01:02:47;;;;;;;10.85;3.83;;;;;;;;;;5085674;28;20043;-71
2022/06/11 01:05:23;;;;;;;8.27;3.80;;;;;;;;;;5081446;28;20027;-71
2022/06/11 01:08:03;;;;;;;14.95;4.40;;;;;;;;;;5077222;28;20172;-71
2022/06/11 01:10:48;;;;;;;9.98;4.30;;;;;;;;;;5059393;28;20038;-71
2022/06/11 01:13:53;;;;;;;11.70;4.00;;;;;;;;;;5082564;28;20032;-71
2022/06/11 01:16:35;;;;;;;8.73;4.03;;;;;;;;;;5088792;28;20044;-71
2022/06/11 01:19:03;;;;;;;10.70;4.10;;;;;;;;;;5079563;28;20051;-71
2022/06/11 01:21:50;;;;;;;7.80;3.70;;;;;;;;;;5081571;28;20024;-71
2022/06/11 01:24:34;;;;;;;14.65;3.95;;;;;;;;;;5089906;28;20028;-71
2022/06/11 01:27:24;;;;;;;9.45;3.83;;;;;;;;;;5081050;28;20394;-71
2022/06/11 01:29:59;;;;;;;7.57;3.70;;;;;;;;;;5078625;28;20493;-71
2022/06/11 01:32:53;;;;;;;7.50;3.45;;;;;;;;;;5090034;28;20058;-71
2022/06/11 01:35:47;;;;;;;8.52;3.88;;;;;;;;;;5077791;28;20405;-71
2022/06/11 01:38:53;;;;;;;11.20;4.30;;;;;;;;;;5073237;28;20029;-71
2022/06/11 01:41:25;;;;;;;9.43;4.10;;;;;;;;;;5085346;28;20024;-70
2022/06/11 01:43:57;;;;;;;16.02;4.35;;;;;;;;;;5090747;28;20035;-71
2022/06/11 01:46:33;;;;;;;7.50;3.80;;;;;;;;;;5079151;28;20043;-71
2022/06/11 01:49:28;;;;;;;10.80;3.95;;;;;;;;;;5086140;28;20032;-71
2022/06/11 01:52:08;;;;;;;9.73;4.28;;;;;;;;;;5063493;28;20044;-71
2022/06/11 01:55:06;;;;;;;10.95;3.92;;;;;;;;;;5061122;28;20031;-71
2022/06/11 01:57:35;;;;;;;10.48;3.95;;;;;;;;;;5036736;28;20052;-71
2022/06/11 02:00:24;;;;;;;6.65;4.13;;;;;;;;;;5085501;28;20028;-71
2022/06/11 02:02:59;;;;;;;9.45;3.97;;;;;;;;;;5065703;28;20502;-72
2022/06/11 02:05:28;;;;;;;10.20;3.92;;;;;;;;;;5081086;28;20214;-72
2022/06/11 02:08:12;;;;;;;8.73;4.10;;;;;;;;;;5083647;28;20024;-71
2022/06/11 02:10:48;;;;;;;8.73;4.20;;;;;;;;;;5077153;28;20496;-72
2022/06/11 02:13:44;;;;;;;7.47;3.60;;;;;;;;;;5081728;28;20361;-72
2022/06/11 02:16:32;;;;;;;7.50;3.83;;;;;;;;;;5088693;28;20027;-71
2022/06/11 02:19:02;;;;;;;9.82;4.18;;;;;;;;;;5078154;28;20047;-70
2022/06/11 02:21:33;;;;;;;11.10;4.40;;;;;;;;;;5080333;28;20044;-70
2022/06/11 02:24:12;;;;;;;9.48;4.25;;;;;;;;;;5088104;28;20507;-71
2022/06/11 02:26:43;;;;;;;10.55;4.30;;;;;;;;;;5061706;28;20510;-70
2022/06/11 02:29:11;;;;;;;13.18;4.25;;;;;;;;;;5082656;28;20044;-70
2022/06/11 02:31:42;;;;;;;11.27;4.43;;;;;;;;;;5083495;28;20511;-70
2022/06/11 02:34:09;;;;;;;10.07;4.43;;;;;;;;;;5075057;28;20047;-70
2022/06/11 02:36:46;;;;;;;9.00;3.97;;;;;;;;;;5087179;28;20021;-71
2022/06/11 02:39:12;;;;;;;11.80;3.95;;;;;;;;;;5081242;28;20035;-71
2022/06/11 02:41:38;;;;;;;8.82;4.00;;;;;;;;;;5078649;28;20051;-71
2022/06/11 02:44:04;;;;;;;9.43;4.30;;;;;;;;;;5088377;28;20028;-71
2022/06/11 02:46:43;;;;;;;11.38;4.43;;;;;;;;;;5075157;28;20535;-71
2022/06/11 02:49:16;;;;;;;7.53;4.03;;;;;;;;;;5081097;28;20052;-71
2022/06/11 02:51:43;;;;;;;11.82;4.07;;;;;;;;;;5085410;28;20028;-71
2022/06/11 02:54:13;;;;;;;10.18;4.18;;;;;;;;;;5074803;28;20024;-71
2022/06/11 02:56:45;;;;;;;10.50;4.38;;;;;;;;;;5086574;28;20040;-71
2022/06/11 02:59:11;;;;;;;10.73;4.18;;;;;;;;;;5080616;28;20024;-70
2022/06/11 03:01:38;;;;;;;12.52;3.65;;;;;;;;;;5078395;28;20024;-70
2022/06/11 03:04:05;;;;;;;9.27;4.82;;;;;;;;;;5087841;28;20492;-71
2022/06/11 03:06:32;;;;;;;11.23;4.38;;;;;;;;;;5074823;28;20028;-70
2022/06/11 03:08:59;;;;;;;7.05;4.00;;;;;;;;;;5081704;28;20036;-70
2022/06/11 03:11:26;;;;;;;12.27;4.10;;;;;;;;;;5082474;28;20508;-71
2022/06/11 03:13:52;;;;;;;9.27;4.30;;;;;;;;;;5075972;28;20039;-70
2022/06/11 03:16:18;;;;;;;9.20;3.88;;;;;;;;;;5087514;28;20280;-71
2022/06/11 03:18:44;;;;;;;8.82;3.90;;;;;;;;;;5076673;28;20028;-71
2022/06/11 03:21:11;;;;;;;7.22;3.90;;;;;;;;;;5081944;28;20028;-70
2022/06/11 03:23:37;;;;;;;8.70;4.18;;;;;;;;;;5083988;28;20039;-71
2022/06/11 03:26:04;;;;;;;8.07;3.80;;;;;;;;;;5074350;28;20401;-70
2022/06/11 03:28:30;;;;;;;12.30;4.07;;;;;;;;;;5056599;28;20064;-71
2022/06/11 03:30:57;;;;;;;12.40;4.20;;;;;;;;;;5079995;28;20047;-71
2022/06/11 03:33:24;;;;;;;10.35;4.07;;;;;;;;;;5074279;28;20028;-71
2022/06/11 03:35:51;;;;;;;9.10;3.65;;;;;;;;;;5075684;28;20020;-71
2022/06/11 03:38:18;;;;;;;10.80;3.85;;;;;;;;;;5070208;28;20033;-71
2022/06/11 03:40:46;;;;;;;11.38;4.57;;;;;;;;;;5074886;28;20050;-71
2022/06/11 03:43:11;;;;;;;8.27;4.03;;;;;;;;;;5081218;28;20028;-71
2022/06/11 03:45:37;;;;;;;8.57;4.03;;;;;;;;;;5081891;28;20412;-71
2022/06/11 03:48:04;;;;;;;7.78;3.72;;;;;;;;;;5073916;28;20028;-71
2022/06/11 03:50:34;;;;;;;10.85;4.20;;;;;;;;;;5087367;28;20036;-71
2022/06/11 03:53:01;;;;;;;11.50;4.70;;;;;;;;;;5078734;28;20035;-71
2022/06/11 03:55:27;;;;;;;12.68;3.83;;;;;;;;;;5078952;28;20028;-71
2022/06/11 03:57:54;;;;;;;12.02;3.60;;;;;;;;;;5085738;28;20035;-71
2022/06/11 04:03:13;;;;;;;9.80;3.70;;;;;;;;;;5081170;28;20029;-71
2022/06/11 04:05:44;;;;;;;9.55;3.83;;;;;;;;;;5082079;28;20146;-71
2022/06/11 04:08:11;;;;;;;8.60;3.67;;;;;;;;;;5071569;28;20043;-71
2022/06/11 04:10:38;;;;;;;8.65;3.50;;;;;;;;;;5085787;28;20031;-71
2022/06/11 04:13:04;;;;;;;9.70;4.03;;;;;;;;;;5078494;28;20444;-72
2022/06/11 04:15:30;;;;;;;8.70;3.97;;;;;;;;;;5078230;28;20032;-72
2022/06/11 04:17:56;;;;;;;9.10;3.90;;;;;;;;;;5085749;28;20024;-71
2022/06/11 04:20:22;;;;;;;7.13;4.15;;;;;;;;;;5073465;28;20032;-71
2022/06/11 04:22:48;;;;;;;10.10;4.45;;;;;;;;;;5083879;28;20473;-71
2022/06/11 04:25:16;;;;;;;12.52;4.65;;;;;;;;;;5079662;28;20054;-71
2022/06/11 04:27:43;;;;;;;10.63;4.43;;;;;;;;;;5076012;28;20021;-71
2022/06/11 04:30:12;;;;;;;9.77;4.35;;;;;;;;;;5086529;28;20473;-71
2022/06/11 04:32:38;;;;;;;8.60;3.92;;;;;;;;;;5074617;28;20028;-71
2022/06/11 04:35:05;;;;;;;8.77;4.40;;;;;;;;;;5081325;28;20374;-71
2022/06/11 04:37:32;;;;;;;11.38;4.30;;;;;;;;;;5079653;28;20035;-71
2022/06/11 04:39:59;;;;;;;10.93;5.03;;;;;;;;;;5072417;28;20047;-71
2022/06/11 04:42:26;;;;;;;11.27;6.05;;;;;;;;;;5086428;28;20032;-71
2022/06/11 04:44:53;;;;;;;8.73;4.30;;;;;;;;;;5076395;28;20388;-72
2022/06/11 04:47:22;;;;;;;8.23;4.35;;;;;;;;;;5079123;28;20044;-71
2022/06/11 04:49:51;;;;;;;9.40;4.85;;;;;;;;;;5082821;28;20464;-71
2022/06/11 04:52:17;;;;;;;9.32;4.40;;;;;;;;;;5073042;28;20029;-71
2022/06/11 04:54:43;;;;;;;8.00;4.57;;;;;;;;;;5074218;28;20233;-71
2022/06/11 04:57:09;;;;;;;9.38;4.40;;;;;;;;;;5069691;28;20023;-71
2022/06/11 04:59:35;;;;;;;9.77;4.57;;;;;;;;;;5069329;28;20028;-71
2022/06/11 05:02:02;;;;;;;10.68;4.30;;;;;;;;;;5069455;28;20028;-72
2022/06/11 05:04:28;;;;;;;10.07;4.47;;;;;;;;;;5085888;28;20481;-71
2022/06/11 05:06:54;;;;;;;8.88;4.30;;;;;;;;;;5076336;28;20032;-71
2022/06/11 05:09:22;;;;;;;8.93;3.88;;;;;;;;;;5078720;28;20029;-72
2022/06/11 05:11:50;;;;;;;10.05;4.00;;;;;;;;;;5084133;28;20500;-72
2022/06/11 05:14:17;;;;;;;10.80;4.55;;;;;;;;;;5072603;28;20043;-71
2022/06/11 05:16:45;;;;;;;10.05;4.10;;;;;;;;;;5082990;28;20036;-71
2022/06/11 05:19:15;;;;;;;6.35;3.90;;;;;;;;;;5076144;28;20485;-71
2022/06/11 05:21:42;;;;;;;14.15;4.07;;;;;;;;;;5075624;28;20039;-72
2022/06/11 05:24:08;;;;;;;7.93;4.15;;;;;;;;;;5085902;28;20032;-71
2022/06/11 05:26:44;;;;;;;10.60;4.15;;;;;;;;;;5073470;28;20024;-71
2022/06/11 05:29:20;;;;;;;7.18;3.67;;;;;;;;;;5079990;28;20044;-71
2022/06/11 05:31:45;;;;;;;9.23;4.00;;;;;;;;;;5080116;28;20033;-72
2022/06/11 05:34:11;;;;;;;10.05;3.80;;;;;;;;;;5070273;28;20051;-71
2022/06/11 05:36:37;;;;;;;7.10;3.72;;;;;;;;;;5084846;28;20573;-71
2022/06/11 05:39:03;;;;;;;10.98;4.13;;;;;;;;;;5066982;28;20033;-70
2022/06/11 05:41:29;;;;;;;8.50;3.67;;;;;;;;;;5073209;28;20027;-72
2022/06/11 05:43:55;;;;;;;9.18;3.60;;;;;;;;;;5072342;28;20397;-72
2022/06/11 05:46:25;;;;;;;9.38;3.42;;;;;;;;;;5076152;28;20025;-71
2022/06/11 05:48:58;;;;;;;15.88;3.70;;;;;;;;;;5084279;28;20028;-72
2022/06/11 05:51:30;;;;;;;7.03;3.45;;;;;;;;;;5084353;28;20032;-72
2022/06/11 05:53:58;;;;;;;8.00;4.00;;;;;;;;;;5077464;28;20079;-71
2022/06/11 05:56:24;;;;;;;8.43;3.40;;;;;;;;;;5089651;28;20043;-73
2022/06/11 05:58:53;;;;;;;8.75;3.63;;;;;;;;;;5079336;28;20028;-72
2022/06/11 06:01:23;;;;;;;13.10;3.67;;;;;;;;;;5080923;28;20051;-71
2022/06/11 06:03:49;;;;;;;9.98;3.45;;;;;;;;;;5087539;28;20031;-72
2022/06/11 06:06:16;;;;;;;10.48;3.80;;;;;;;;;;5075960;28;20036;-72
2022/06/11 06:08:41;;;;;;;9.40;3.60;;;;;;;;;;5085490;28;20052;-71
2022/06/11 06:11:08;;;;;;;8.88;3.55;;;;;;;;;;5081508;28;20524;-72
2022/06/11 06:13:46;;;;;;;9.20;3.38;;;;;;;;;;5080262;28;20032;-72
2022/06/11 06:16:24;;;;;;;11.35;3.40;;;;;;;;;;5087518;28;20063;-72
2022/06/11 06:18:52;;;;;;;8.60;3.53;;;;;;;;;;5079031;28;20020;-72
2022/06/11 06:21:21;;;;;;;11.00;3.50;;;;;;;;;;5082051;28;20049;-72
2022/06/11 06:23:47;;;;;;;7.20;3.33;;;;;;;;;;5086963;28;20032;-71
2022/06/11 06:26:13;;;;;;;9.25;3.38;;;;;;;;;;5076104;28;20036;-72
2022/06/11 06:28:42;;;;;;;9.98;3.60;;;;;;;;;;5087888;28;20028;-72
2022/06/11 06:31:10;;;;;;;12.32;3.80;;;;;;;;;;5072892;28;20028;-72
2022/06/11 06:33:36;;;;;;;13.15;3.90;;;;;;;;;;5085440;28;20031;-73
2022/06/11 06:36:05;;;;;;;12.35;3.75;;;;;;;;;;5076037;28;20024;-71
2022/06/11 06:38:32;;;;;;;9.15;3.50;;;;;;;;;;5061166;28;20016;-72
2022/06/11 06:40:58;;;;;;;9.20;3.75;;;;;;;;;;5084066;28;20040;-72
2022/06/11 06:43:24;;;;;;;10.73;3.55;;;;;;;;;;5082233;28;20077;-72
2022/06/11 06:45:50;;;;;;;9.90;3.22;;;;;;;;;;5076968;28;20504;-72
2022/06/11 06:48:16;;;;;;;8.10;3.80;;;;;;;;;;5088409;28;20397;-72
2022/06/11 06:50:42;;;;;;;8.45;3.58;;;;;;;;;;5076980;28;20024;-71
2022/06/11 06:53:08;;;;;;;9.15;3.15;;;;;;;;;;5082855;28;20025;-71
2022/06/11 06:55:34;;;;;;;11.25;3.40;;;;;;;;;;5083987;28;20078;-72
2022/06/11 06:58:00;;;;;;;9.25;3.08;;;;;;;;;;5075286;28;20563;-72
2022/06/11 07:00:27;;;;;;;7.03;3.17;;;;;;;;;;5087893;28;20040;-72
2022/06/11 07:02:54;;;;;;;10.00;3.65;;;;;;;;;;5078353;28;20039;-72
2022/06/11 07:05:21;;;;;;;10.20;3.60;;;;;;;;;;5080671;28;20036;-72
2022/06/11 07:07:50;;;;;;;9.05;2.92;;;;;;;;;;5085607;28;20035;-74
2022/06/11 07:10:17;;;;;;;9.88;3.33;;;;;;;;;;5074704;28;20029;-72
2022/06/11 07:12:43;;;;;;;9.98;3.10;;;;;;;;;;5085908;28;20029;-72
2022/06/11 07:15:09;;;;;;;9.38;3.00;;;;;;;;;;5080301;28;20334;-73
2022/06/11 07:17:40;;;;;;;10.60;3.13;;;;;;;;;;5078265;28;20024;-77
2022/06/11 07:20:12;;;;;;;8.80;2.88;;;;;;;;;;5087820;28;20039;-76
2022/06/11 07:22:55;;;;;;;11.30;2.85;;;;;;;;;;5075946;28;20035;-75
2022/06/11 07:25:22;;;;;;;11.40;3.22;;;;;;;;;;5080181;28;20025;-75
2022/06/11 07:27:52;;;;;;;9.38;2.67;;;;;;;;;;5085170;28;20505;-75
2022/06/11 07:30:23;;;;;;;7.72;2.92;;;;;;;;;;5055318;28;20051;-74
2022/06/11 07:32:56;;;;;;;7.43;2.67;;;;;;;;;;5080760;28;20047;-73
2022/06/11 07:35:22;;;;;;;10.90;2.95;;;;;;;;;;5069896;28;20037;-73
2022/06/11 07:37:50;;;;;;;7.50;3.10;;;;;;;;;;5071987;28;20027;-74
2022/06/11 07:40:18;;;;;;;9.35;3.05;;;;;;;;;;5075819;28;20032;-73
2022/06/11 07:42:45;;;;;;;9.52;2.95;;;;;;;;;;5058309;28;20032;-74
2022/06/11 07:45:10;;;;;;;7.35;2.80;;;;;;;;;;5076895;28;20203;-74
2022/06/11 07:47:54;;;;;;;9.05;2.65;;;;;;;;;;5075551;28;20028;-74
2022/06/11 07:50:26;;;;;;;8.35;2.53;;;;;;;;;;5084345;28;20028;-74
2022/06/11 07:52:51;;;;;;;7.57;2.50;;;;;;;;;;5074996;28;20404;-74
2022/06/11 07:55:18;;;;;;;9.23;2.90;;;;;;;;;;5077123;28;20107;-74
2022/06/11 07:57:44;;;;;;;11.70;3.03;;;;;;;;;;5082236;28;20388;-73
2022/06/11 08:00:13;;;;;;;9.68;2.58;;;;;;;;;;5071067;28;20107;-74
2022/06/11 08:02:39;;;;;;;8.48;3.03;;;;;;;;;;5083220;28;20394;-73
2022/06/11 08:05:06;;;;;;;9.80;2.28;;;;;;;;;;5076073;28;20051;-74
2022/06/11 08:07:32;;;;;;;7.40;2.00;;;;;;;;;;5075868;28;20389;-74
2022/06/11 08:09:58;;;;;;;5.15;2.03;;;;;;;;;;5084054;28;20056;-74
2022/06/11 08:12:25;;;;;;;7.60;2.05;;;;;;;;;;5070206;28;20039;-74
2022/06/11 08:14:56;;;;;;;7.90;2.35;;;;;;;;;;5080391;28;20393;-76
2022/06/11 08:17:27;;;;;;;6.60;1.80;;;;;;;;;;5076395;28;20397;-76
2022/06/11 08:19:53;;;;;;;8.68;1.85;;;;;;;;;;5083672;28;20055;-76
2022/06/11 08:22:20;;;;;;;6.50;1.88;;;;;;;;;;5070586;28;20021;-75
2022/06/11 08:24:46;;;;;;;5.63;1.60;;;;;;;;;;5082603;28;20362;-76
2022/06/11 08:27:12;;;;;;;4.35;1.60;;;;;;;;;;5077080;28;20032;-75
2022/06/11 08:29:38;;;;;;;5.47;1.73;;;;;;;;;;5074953;28;20460;-76
2022/06/11 08:32:06;;;;;;;6.57;1.80;;;;;;;;;;5082367;28;20139;-76
2022/06/11 08:34:36;;;;;;;4.65;1.60;;;;;;;;;;5071267;28;20039;-76
2022/06/11 08:37:02;;;;;;;4.97;1.80;;;;;;;;;;5077765;28;20043;-75
2022/06/11 08:39:28;;;;;;;6.43;2.00;;;;;;;;;;5079059;28;20036;-74
2022/06/11 08:42:01;;;;;;;5.03;1.70;;;;;;;;;;5072574;28;20071;-75
2022/06/11 08:44:31;;;;;;;3.55;1.52;;;;;;;;;;5083779;28;20037;-76
2022/06/11 08:47:01;;;;;;;5.50;1.73;;;;;;;;;;5085593;28;20039;-75
2022/06/11 08:49:31;;;;;;;5.22;1.85;;;;;;;;;;5073778;28;20033;-76
2022/06/11 08:52:11;;;;;;;6.50;1.85;;;;;;;;;;5083687;28;20028;-75
2022/06/11 08:54:41;;;;;;;5.03;1.50;;;;;;;;;;5056372;28;20050;-74
2022/06/11 08:57:28;;;;;;;5.15;1.67;;;;;;;;;;5078155;28;20055;-74
2022/06/11 09:00:20;;;;;;;4.50;1.60;;;;;;;;;;5082684;28;20036;-74
2022/06/11 09:03:12;;;;;;;6.80;2.10;;;;;;;;;;5059394;28;20032;-76
2022/06/11 09:06:02;;;;;;;6.68;2.15;;;;;;;;;;5073790;28;20033;-75
2022/06/11 09:08:46;;;;;;;8.48;2.25;;;;;;;;;;5070756;28;20023;-76
2022/06/11 09:11:39;;;;;;;6.80;2.00;;;;;;;;;;5077016;28;20516;-75
2022/06/11 09:14:36;;;;;;;8.77;2.45;;;;;;;;;;5083335;28;20514;-75
2022/06/11 09:17:14;;;;;;;8.20;2.25;;;;;;;;;;5076824;28;20367;-76
2022/06/11 09:19:40;;;;;;;9.77;2.28;;;;;;;;;;5079365;28;20032;-75
2022/06/11 09:22:26;;;;;;;7.25;2.10;;;;;;;;;;5069616;28;20046;-76
2022/06/11 09:25:20;;;;;;;5.40;2.20;;;;;;;;;;5084115;28;20020;-72
2022/06/11 09:27:50;;;;;;;9.25;2.10;;;;;;;;;;5084918;28;20036;-73
2022/06/11 09:30:25;;;;;;;8.85;2.00;;;;;;;;;;5071806;28;20028;-73
2022/06/11 09:32:58;;;;;;;6.00;2.00;;;;;;;;;;5071100;28;20033;-76
2022/06/11 09:35:36;;;;;;;6.80;2.17;;;;;;;;;;5072720;28;20031;-72
2022/06/11 09:38:02;;;;;;;7.82;2.15;;;;;;;;;;5073328;28;20038;-77
2022/06/11 09:40:42;;;;;;;4.20;1.83;;;;;;;;;;5073543;28;20040;-72
2022/06/11 09:43:26;;;;;;;4.93;1.90;;;;;;;;;;5079216;28;20043;-73
2022/06/11 09:46:04;;;;;;;6.32;1.92;;;;;;;;;;5076770;28;20035;-76
2022/06/11 09:48:33;;;;;;;5.10;1.50;;;;;;;;;;5057864;28;20036;-77
2022/06/11 09:51:11;;;;;;;4.95;1.63;;;;;;;;;;5083512;28;20028;-79
2022/06/11 09:54:14;;;;;;;5.55;1.83;;;;;;;;;;5083968;28;20042;-81
2022/06/11 09:57:00;;;;;;;3.35;1.45;;;;;;;;;;5061091;28;20024;-78
2022/06/11 09:59:52;;;;;;;3.80;1.30;;;;;;;;;;5077160;28;20059;-78
2022/06/11 10:04:55;;;;;;;4.20;1.55;;;;;;;;;;5078380;28;20032;-82
2022/06/11 10:07:31;;;;;;;5.97;1.70;;;;;;;;;;5070079;28;20032;-83
2022/06/11 10:10:15;;;;;;;4.25;1.75;;;;;;;;;;5087372;28;20522;-72
2022/06/11 10:12:46;;;;;;;3.65;1.50;;;;;;;;;;5061874;28;20032;-83
2022/06/11 10:15:23;;;;;;;5.50;1.60;;;;;;;;;;5076479;28;20405;-82
2022/06/11 10:18:00;;;;;;;5.60;1.63;;;;;;;;;;5058508;28;20039;-76
2022/06/11 10:20:28;;;;;;;3.70;1.58;;;;;;;;;;5068690;28;20035;-71
2022/06/11 10:23:07;;;;;;;4.57;1.77;;;;;;;;;;5072257;28;20025;-71
2022/06/11 10:25:55;;;;;;;4.20;1.43;;;;;;;;;;5063234;28;20032;-71
2022/06/11 10:28:24;;;;;;;5.22;1.77;;;;;;;;;;5067405;28;20493;-71
2022/06/11 10:30:56;;;;;;;5.20;1.90;;;;;;;;;;5068398;28;20473;-72
2022/06/11 10:33:37;;;;;;;5.35;1.70;;;;;;;;;;5067493;28;20032;-73
2022/06/11 10:36:07;;;;;;;6.13;1.50;;;;;;;;;;5066427;28;20025;-71
2022/06/11 10:39:03;;;;;;;5.03;1.52;;;;;;;;;;5065876;28;20127;-72
2022/06/11 10:41:54;;;;;;;6.10;1.50;;;;;;;;;;5068476;28;20029;-72
2022/06/11 10:44:39;;;;;;;3.83;1.40;;;;;;;;;;5072094;28;20055;-73
2022/06/11 10:47:17;;;;;;;4.15;1.42;;;;;;;;;;5062727;28;20513;-72
2022/06/11 10:49:49;;;;;;;5.68;1.50;;;;;;;;;;5065988;28;20043;-71
2022/06/11 10:52:31;;;;;;;2.08;1.17;;;;;;;;;;5065237;28;20036;-69
2022/06/11 10:54:57;;;;;;;2.28;1.20;;;;;;;;;;5067225;28;20513;-71
2022/06/11 10:57:25;;;;;;;3.70;1.70;;;;;;;;;;5067466;28;20053;-76
2022/06/11 11:00:01;;;;;;;3.13;1.17;;;;;;;;;;5067591;28;20032;-72
2022/06/11 11:02:41;;;;;;;4.45;1.30;;;;;;;;;;5067816;28;20496;-72
2022/06/11 11:05:11;;;;;;;2.33;1.40;;;;;;;;;;5065490;28;20045;-70
2022/06/11 11:08:00;;;;;;;7.15;1.23;;;;;;;;;;5067814;28;20503;-73
2022/06/11 11:10:35;;;;;;;2.75;1.20;;;;;;;;;;5071612;28;20051;-74
2022/06/11 11:13:05;;;;;;;4.50;1.20;;;;;;;;;;5073384;28;20051;-68
2022/06/11 11:15:40;;;;;;;3.17;1.35;;;;;;;;;;5077026;28;20032;-69
2022/06/11 11:18:21;;;;;;;3.78;1.30;;;;;;;;;;5064344;28;20029;-71
2022/06/11 11:20:50;;;;;;;3.58;1.50;;;;;;;;;;5058166;28;20032;-71
2022/06/11 11:23:27;;;;;;;2.78;1.38;;;;;;;;;;5054809;28;20096;-71
2022/06/11 11:25:57;;;;;;;3.65;1.27;;;;;;;;;;5061832;28;20024;-69
2022/06/11 11:28:27;;;;;;;3.28;1.35;;;;;;;;;;5065153;28;20033;-72
2022/06/11 11:31:04;;;;;;;5.78;1.60;;;;;;;;;;5060233;28;20037;-74
2022/06/11 11:33:42;;;;;;;2.72;1.30;;;;;;;;;;5068973;28;20024;-74
2022/06/11 11:36:20;;;;;;;4.85;1.60;;;;;;;;;;5060965;28;20047;-74
2022/06/11 11:39:18;;;;;;;3.78;1.40;;;;;;;;;;5070462;28;20047;-73
2022/06/11 11:42:08;;;;;;;5.18;1.48;;;;;;;;;;5076164;28;20524;-72
2022/06/11 11:44:41;;;;;;;4.65;1.30;;;;;;;;;;5069976;28;20044;-72
2022/06/11 11:47:37;;;;;;;3.65;1.70;;;;;;;;;;5083222;28;20485;-72
2022/06/11 11:50:22;;;;;;;5.00;1.75;;;;;;;;;;5067862;28;20040;-69
2022/06/11 11:52:55;;;;;;;3.15;1.52;;;;;;;;;;5055932;28;20028;-72
2022/06/11 11:55:38;;;;;;;4.82;1.50;;;;;;;;;;5063015;28;20385;-71
2022/06/11 11:58:16;;;;;;;5.00;1.60;;;;;;;;;;5064378;28;20032;-71
2022/06/11 12:00:51;;;;;;;3.63;1.23;;;;;;;;;;5053450;28;20486;-72
2022/06/11 12:03:31;;;;;;;3.40;1.60;;;;;;;;;;5060223;28;20591;-70
2022/06/11 12:05:58;;;;;;;4.88;1.52;;;;;;;;;;5062768;28;20032;-73
2022/06/11 12:08:33;;;;;;;7.47;1.88;;;;;;;;;;5065486;28;20389;-74
2022/06/11 12:11:02;;;;;;;5.40;1.88;;;;;;;;;;5068079;28;20043;-72
2022/06/11 12:13:42;;;;;;;3.40;1.77;;;;;;;;;;5062014;28;20067;-68
2022/06/11 12:16:26;;;;;;;4.55;1.65;;;;;;;;;;5061863;28;20024;-73
2022/06/11 12:18:57;;;;;;;3.30;1.40;;;;;;;;;;5065897;28;20036;-69
2022/06/11 12:21:26;;;;;;;2.67;1.27;;;;;;;;;;5063670;28;20036;-72
2022/06/11 12:24:25;;;;;;;4.47;1.55;;;;;;;;;;5056046;28;20040;-72
2022/06/11 12:26:57;;;;;;;4.32;1.50;;;;;;;;;;5054001;28;20037;-81
2022/06/11 12:29:41;;;;;;;5.45;1.70;;;;;;;;;;5056516;28;20021;-73
2022/06/11 12:32:19;;;;;;;4.80;1.63;;;;;;;;;;5069363;28;20020;-70
2022/06/11 12:34:45;;;;;;;4.35;1.63;;;;;;;;;;5062897;28;20043;-69
2022/06/11 12:37:49;;;;;;;4.97;1.45;;;;;;;;;;5058991;28;20048;-70
2022/06/11 12:40:39;;;;;;;6.00;1.80;;;;;;;;;;5063001;28;20496;-69
2022/06/11 12:43:34;;;;;;;4.95;1.60;;;;;;;;;;5058742;28;20024;-69
2022/06/11 12:46:16;;;;;;;5.28;1.60;;;;;;;;;;5069642;28;20047;-70
2022/06/11 12:49:01;;;;;;;5.93;1.50;;;;;;;;;;5063663;28;20028;-69
2022/06/11 12:51:32;;;;;;;6.80;2.03;;;;;;;;;;5062373;28;20032;-71
2022/06/11 12:54:12;;;;;;;5.20;1.75;;;;;;;;;;5068599;28;20035;-68
2022/06/11 12:57:12;;;;;;;6.45;2.03;;;;;;;;;;5063474;28;20397;-72
2022/06/11 12:59:44;;;;;;;3.05;1.60;;;;;;;;;;5061655;28;20040;-69
2022/06/11 13:02:31;;;;;;;4.63;1.50;;;;;;;;;;5059172;28;20033;-68
2022/06/11 13:05:09;;;;;;;4.65;1.55;;;;;;;;;;5060022;28;20501;-73
2022/06/11 13:07:59;;;;;;;6.53;1.83;;;;;;;;;;5074007;28;20504;-70
2022/06/11 13:10:57;;;;;;;;;;;;;;;;;;5068744;28;20044;-71
2022/06/11 13:13:48;;;;;;;4.28;1.40;;;;;;;;;;5033354;28;19913;-73
2022/06/11 13:16:29;;;;;;;5.50;1.80;;;;;;;;;;5069045;28;20021;-71
2022/06/11 13:19:28;;;;;;;6.57;1.77;;;;;;;;;;5066533;28;20044;-71
2022/06/11 13:22:06;;;;;;;4.75;1.70;;;;;;;;;;5067194;28;20029;-73
2022/06/11 13:24:32;;;;;;;6.72;1.73;;;;;;;;;;5060366;28;20033;-77
2022/06/11 13:27:20;;;;;;;3.50;1.60;;;;;;;;;;5072599;28;20021;-73
2022/06/11 13:29:54;;;;;;;4.43;2.03;;;;;;;;;;5072649;28;20658;-76
2022/06/11 13:32:39;;;;;;;3.35;1.60;;;;;;;;;;5072816;28;20056;-76
2022/06/11 13:35:25;;;;;;;6.90;1.95;;;;;;;;;;5068918;28;20029;-76
2022/06/11 13:38:17;;;;;;;3.70;1.50;;;;;;;;;;5057201;28;20397;-78
2022/06/11 13:40:56;;;;;;;6.50;1.80;;;;;;;;;;5073073;28;20017;-76
2022/06/11 13:43:52;;;;;;;3.42;1.60;;;;;;;;;;5073136;28;20024;-75
2022/06/11 13:46:47;;;;;;;5.20;1.60;;;;;;;;;;5072874;28;20040;-76
2022/06/11 13:49:18;;;;;;;5.95;1.73;;;;;;;;;;5072873;28;20032;-76
2022/06/11 13:51:52;;;;;;;7.07;1.88;;;;;;;;;;5073023;28;20029;-76
2022/06/11 13:57:33;;;;;;;5.10;1.92;;;;;;;;;;5073297;28;20032;-76
2022/06/11 14:00:02;;;;;;;4.63;1.88;;;;;;;;;;5072926;28;20112;-74
2022/06/11 14:03:01;;;;;;;4.07;1.50;;;;;;;;;;5073045;28;20031;-78
2022/06/11 14:05:36;;;;;;;3.80;1.67;;;;;;;;;;5072837;28;20024;-84
2022/06/11 14:08:03;;;;;;;3.40;1.63;;;;;;;;;;5072836;28;20040;-77
2022/06/11 14:10:36;;;;;;;4.55;1.88;;;;;;;;;;5072512;28;20473;-83
2022/06/11 14:13:05;;;;;;;4.15;1.92;;;;;;;;;;5072837;28;20020;-77
2022/06/11 14:15:46;;;;;;;6.28;1.83;;;;;;;;;;5052837;28;20033;-76
2022/06/11 14:18:23;;;;;;;4.50;1.83;;;;;;;;;;5051587;28;20043;-75
2022/06/11 14:21:03;;;;;;;7.93;1.70;;;;;;;;;;5052825;28;20355;-79
2022/06/11 14:23:28;;;;;;;3.73;1.50;;;;;;;;;;5069237;28;20492;-79
2022/06/11 14:26:23;;;;;;;4.72;1.60;;;;;;;;;;5073122;28;20449;-81
2022/06/11 14:29:01;;;;;;;4.75;1.60;;;;;;;;;;5054161;28;20049;-77
2022/06/11 14:31:55;;;;;;;4.45;1.70;;;;;;;;;;5072578;28;20484;-73
2022/06/11 14:34:25;;;;;;;5.10;1.50;;;;;;;;;;5072438;28;20039;-82
2022/06/11 14:37:05;;;;;;;5.43;1.83;;;;;;;;;;5071187;28;20503;-77
2022/06/11 14:39:35;;;;;;;4.38;1.60;;;;;;;;;;5073588;28;20032;-81
2022/06/11 14:42:22;;;;;;;7.82;1.67;;;;;;;;;;5072592;28;20028;-80
2022/06/11 14:45:30;;;;;;;5.72;1.67;;;;;;;;;;5070709;28;20037;-80
2022/06/11 14:48:00;;;;;;;5.35;1.60;;;;;;;;;;5051068;28;20036;-71
2022/06/11 14:51:11;;;;;;;3.88;1.80;;;;;;;;;;5072038;28;20036;-76
2022/06/11 14:53:46;;;;;;;6.57;1.83;;;;;;;;;;5071739;28;20531;-76
2022/06/11 14:56:17;;;;;;;4.18;1.60;;;;;;;;;;5071640;28;20029;-77
2022/06/11 14:59:10;;;;;;;7.40;1.77;;;;;;;;;;5071798;28;20424;-77
2022/06/11 15:01:49;;;;;;;2.75;1.50;;;;;;;;;;5071576;28;20020;-78
2022/06/11 15:04:30;;;;;;;3.47;1.40;;;;;;;;;;5069867;28;20031;-77
2022/06/11 15:07:34;;;;;;;4.90;1.70;;;;;;;;;;5070276;28;20357;-78
2022/06/11 15:10:18;;;;;;;4.15;1.70;;;;;;;;;;5069161;28;20040;-78
2022/06/11 15:13:23;;;;;;;4.07;1.80;;;;;;;;;;5069115;28;20066;-77
2022/06/11 15:15:51;;;;;;;4.13;1.80;;;;;;;;;;5068935;28;20041;-78
2022/06/11 15:18:40;;;;;;;3.28;1.67;;;;;;;;;;5071318;28;20401;-77
2022/06/11 15:21:29;;;;;;;3.97;1.73;;;;;;;;;;5071060;28;20027;-77
2022/06/11 15:24:20;;;;;;;7.88;2.20;;;;;;;;;;5071143;28;20032;-78
2022/06/11 15:27:01;;;;;;;5.38;1.90;;;;;;;;;;5071006;28;20148;-77
2022/06/11 15:29:30;;;;;;;6.50;1.98;;;;;;;;;;5070896;28;20028;-77
2022/06/11 15:32:00;;;;;;;4.55;1.65;;;;;;;;;;5069426;28;20043;-77